Time;durP1;ratioP1;P1;durP2;ratioP2;P2;SDS_P1;SDS_P2;PMS_P1;PMS_P2;Temp;Humidity;BMP_temperature;BMP_pressure;BME280_temperature;BME280_humidity;BME280_pressure;Samples;Min_cycle;Max_cycle;Signal;HPM_P1;HPM_P2
2021/10/25 00:01:16;;;;;;;10.48;6.22;;;;;;;-139.48;100.00;61774.03;4998424;28;20049;-70
2021/10/25 00:04:00;;;;;;;8.18;5.72;;;;;;;-139.48;100.00;61774.03;4998462;28;20521;-70
2021/10/25 00:06:44;;;;;;;11.65;6.32;;;;;;;-139.48;100.00;61774.03;4998885;28;20045;-70
2021/10/25 00:09:28;;;;;;;9.68;6.40;;;;;;;-139.48;100.00;61774.03;5012091;28;20514;-70
2021/10/25 00:12:12;;;;;;;12.25;5.72;;;;;;;-139.48;100.00;61774.03;5013460;28;20509;-70
2021/10/25 00:14:56;;;;;;;8.63;5.72;;;;;;;-139.48;100.00;61774.03;5012024;28;20625;-70
2021/10/25 00:17:40;;;;;;;7.20;5.30;;;;;;;-139.48;100.00;61774.03;5012381;28;20096;-70
2021/10/25 00:20:24;;;;;;;14.77;6.05;;;;;;;-139.48;100.00;61774.03;5012384;28;20049;-70
2021/10/25 00:23:08;;;;;;;9.82;6.10;;;;;;;-139.48;100.00;61774.03;5014604;28;20052;-70
2021/10/25 00:25:52;;;;;;;11.50;6.75;;;;;;;-139.48;100.00;61774.03;4998718;28;20107;-70
2021/10/25 00:28:36;;;;;;;7.72;5.63;;;;;;;-139.48;100.00;61774.03;5015652;28;20053;-70
2021/10/25 00:31:20;;;;;;;8.38;5.97;;;;;;;-139.48;100.00;61774.03;5017046;28;20156;-70
2021/10/25 00:34:04;;;;;;;7.22;5.70;;;;;;;-139.48;100.00;61774.03;5015996;28;20053;-70
2021/10/25 00:36:48;;;;;;;7.07;5.65;;;;;;;-139.48;100.00;61774.03;5016205;28;20419;-70
2021/10/25 00:39:32;;;;;;;8.27;5.72;;;;;;;-139.48;100.00;61774.03;5015868;28;20085;-67
2021/10/25 00:42:17;;;;;;;8.95;5.80;;;;;;;-139.48;100.00;61774.03;5015657;28;20049;-70
2021/10/25 00:45:01;;;;;;;9.10;6.10;;;;;;;-139.48;100.00;61774.03;5002018;28;20053;-70
2021/10/25 00:47:45;;;;;;;;;;;;;;;-139.48;100.00;61774.03;5016174;28;20414;-69
2021/10/25 00:50:29;;;;;;;8.43;5.90;;;;;;;-139.48;100.00;61774.03;5001963;28;20403;-70
2021/10/25 00:53:12;;;;;;;10.30;6.13;;;;;;;-139.48;100.00;61774.03;5015672;28;20419;-70
2021/10/25 00:55:57;;;;;;;12.45;6.57;;;;;;;-139.48;100.00;61774.03;5015514;28;20439;-70
2021/10/25 00:58:41;;;;;;;11.25;6.63;;;;;;;-139.48;100.00;61774.03;5015410;28;20156;-70
2021/10/25 01:01:25;;;;;;;10.05;5.70;;;;;;;-139.48;100.00;61774.03;5016508;28;20414;-70
2021/10/25 01:04:10;;;;;;;9.30;6.57;;;;;;;-139.48;100.00;61774.03;5016418;28;20135;-70
2021/10/25 01:06:55;;;;;;;10.40;6.53;;;;;;;-139.48;100.00;61774.03;5001681;28;20446;-69
2021/10/25 01:09:41;;;;;;;10.48;6.35;;;;;;;-139.48;100.00;61774.03;5001036;28;20057;-70
2021/10/25 01:12:25;;;;;;;9.43;6.88;;;;;;;-139.48;100.00;61774.03;5001413;28;20532;-70
2021/10/25 01:15:09;;;;;;;13.32;6.63;;;;;;;-139.48;100.00;61774.03;5015086;28;20076;-70
2021/10/25 01:17:57;;;;;;;22.92;7.53;;;;;;;-139.48;100.00;61774.03;5015312;28;20103;-70
2021/10/25 01:20:41;;;;;;;35.00;7.72;;;;;;;-139.48;100.00;61774.03;5001494;28;20056;-70
2021/10/25 01:23:26;;;;;;;24.20;8.07;;;;;;;-139.48;100.00;61774.03;5015042;28;20157;-70
2021/10/25 01:26:09;;;;;;;12.88;8.07;;;;;;;-139.48;100.00;61774.03;5014801;28;20053;-70
2021/10/25 01:28:54;;;;;;;9.48;6.63;;;;;;;-139.48;100.00;61774.03;5014808;28;20569;-70
2021/10/25 01:31:37;;;;;;;12.57;6.65;;;;;;;-139.48;100.00;61774.03;5015179;28;20076;-70
2021/10/25 01:34:21;;;;;;;11.40;6.65;;;;;;;-139.48;100.00;61774.03;5015585;28;20049;-70
2021/10/25 01:37:07;;;;;;;17.15;7.05;;;;;;;-139.48;100.00;61774.03;5000988;28;20048;-70
2021/10/25 01:39:51;;;;;;;31.52;8.85;;;;;;;-139.48;100.00;61774.03;5014455;28;20051;-70
2021/10/25 01:42:36;;;;;;;15.65;7.43;;;;;;;-139.48;100.00;61774.03;5000585;28;20096;-70
2021/10/25 01:45:20;;;;;;;11.07;6.78;;;;;;;-139.48;100.00;61774.03;5015896;28;20060;-69
2021/10/25 01:48:04;;;;;;;11.05;6.80;;;;;;;-139.48;100.00;61774.03;5014533;28;20073;-70
2021/10/25 01:50:48;;;;;;;12.95;6.60;;;;;;;-139.48;100.00;61774.03;5000705;28;20470;-70
2021/10/25 01:53:35;;;;;;;12.10;7.85;;;;;;;-139.48;100.00;61774.03;5014539;28;20104;-70
2021/10/25 01:56:20;;;;;;;11.68;6.93;;;;;;;-139.48;100.00;61774.03;5014417;28;20498;-70
2021/10/25 01:59:08;;;;;;;10.13;6.88;;;;;;;-139.48;100.00;61774.03;5000516;28;20061;-70
2021/10/25 02:01:52;;;;;;;12.90;6.88;;;;;;;-139.48;100.00;61774.03;5014318;28;20107;-68
2021/10/25 02:04:36;;;;;;;10.75;7.05;;;;;;;-139.48;100.00;61774.03;5014275;28;20049;-70
2021/10/25 02:07:20;;;;;;;11.05;7.22;;;;;;;-139.48;100.00;61774.03;5014241;28;20053;-70
2021/10/25 02:10:05;;;;;;;9.95;6.47;;;;;;;-139.48;100.00;61774.03;5013777;28;20569;-70
2021/10/25 02:12:49;;;;;;;10.52;7.03;;;;;;;-139.48;100.00;61774.03;5014158;28;20080;-70
2021/10/25 02:15:33;;;;;;;8.73;6.35;;;;;;;-139.48;100.00;61774.03;5014102;28;20052;-70
2021/10/25 02:18:17;;;;;;;10.40;6.90;;;;;;;-139.48;100.00;61774.03;5000048;28;20108;-70
2021/10/25 02:21:01;;;;;;;9.05;6.55;;;;;;;-139.48;100.00;61774.03;5014030;28;20053;-70
2021/10/25 02:23:45;;;;;;;10.02;6.50;;;;;;;-139.48;100.00;61774.03;5000069;28;20100;-69
2021/10/25 02:26:29;;;;;;;10.75;6.03;;;;;;;-139.48;100.00;61774.03;5013857;28;20091;-70
2021/10/25 02:29:13;;;;;;;15.02;6.22;;;;;;;-139.48;100.00;61774.03;5013502;28;20103;-70
2021/10/25 02:31:57;;;;;;;8.35;6.50;;;;;;;-139.48;100.00;61774.03;4999963;28;20096;-70
2021/10/25 02:34:43;;;;;;;8.10;6.05;;;;;;;-139.48;100.00;61774.03;5014463;28;20049;-70
2021/10/25 02:37:27;;;;;;;10.23;6.43;;;;;;;-139.48;100.00;61774.03;5013827;28;20053;-70
2021/10/25 02:40:11;;;;;;;10.88;5.93;;;;;;;-139.48;100.00;61774.03;5014582;28;20123;-69
2021/10/25 02:42:56;;;;;;;10.18;6.65;;;;;;;-139.48;100.00;61774.03;5013383;28;20048;-70
2021/10/25 02:45:40;;;;;;;10.18;7.03;;;;;;;-139.48;100.00;61774.03;5013233;28;20075;-70
2021/10/25 02:48:25;;;;;;;8.73;6.10;;;;;;;-139.48;100.00;61774.03;5013434;28;20068;-70
2021/10/25 02:51:09;;;;;;;8.38;5.97;;;;;;;-139.48;100.00;61774.03;4999079;28;20434;-70
2021/10/25 02:53:53;;;;;;;10.10;6.38;;;;;;;-139.48;100.00;61774.03;4999540;28;20049;-70
2021/10/25 02:56:37;;;;;;;9.95;5.78;;;;;;;-139.48;100.00;61774.03;5013208;28;20049;-70
2021/10/25 02:59:21;;;;;;;12.15;6.72;;;;;;;-139.48;100.00;61774.03;4999383;28;20108;-70
2021/10/25 03:02:05;;;;;;;11.20;6.57;;;;;;;-139.48;100.00;61774.03;5013260;28;20137;-70
2021/10/25 03:04:48;;;;;;;10.80;5.90;;;;;;;-139.48;100.00;61774.03;5013449;28;20057;-70
2021/10/25 03:07:33;;;;;;;8.80;6.47;;;;;;;-139.48;100.00;61774.03;5013164;28;20057;-70
2021/10/25 03:10:17;;;;;;;8.57;5.75;;;;;;;-139.48;100.00;61774.03;5014134;28;20133;-70
2021/10/25 03:13:02;;;;;;;7.65;5.50;;;;;;;-139.48;100.00;61774.03;5013125;28;20072;-70
2021/10/25 03:15:46;;;;;;;7.63;5.75;;;;;;;-139.48;100.00;61774.03;5012733;28;20096;-70
2021/10/25 03:18:30;;;;;;;8.13;5.95;;;;;;;-139.48;100.00;61774.03;5012904;28;20056;-70
2021/10/25 03:21:14;;;;;;;;;;;;;;;-139.48;100.00;61774.03;5014673;28;20100;-67
2021/10/25 03:23:59;;;;;;;8.07;5.35;;;;;;;-139.48;100.00;61774.03;5013813;28;19929;-70
2021/10/25 03:26:43;;;;;;;9.23;5.65;;;;;;;-139.48;100.00;61774.03;5012885;28;20095;-69
2021/10/25 03:29:27;;;;;;;9.55;6.22;;;;;;;-139.48;100.00;61774.03;5012796;28;20517;-70
2021/10/25 03:32:11;;;;;;;7.68;5.68;;;;;;;-139.48;100.00;61774.03;5013824;28;20132;-70
2021/10/25 03:34:55;;;;;;;;;;;;;;;-139.48;100.00;61774.03;4998996;28;20049;-70
2021/10/25 03:37:39;;;;;;;11.57;6.60;;;;;;;-139.48;100.00;61774.03;5012786;28;20088;-70
2021/10/25 03:40:23;;;;;;;10.52;6.53;;;;;;;-139.48;100.00;61774.03;5013692;28;20461;-70
2021/10/25 03:43:08;;;;;;;10.07;6.38;;;;;;;-139.48;100.00;61774.03;5012928;28;20048;-70
2021/10/25 03:45:58;;;;;;;10.23;6.97;;;;;;;-139.48;100.00;61774.03;4998871;28;20527;-70
2021/10/25 03:48:53;;;;;;;8.52;6.40;;;;;;;-139.48;100.00;61774.03;4999581;28;20084;-70
2021/10/25 03:51:39;;;;;;;9.52;6.78;;;;;;;-139.48;100.00;61774.03;5012490;28;20048;-70
2021/10/25 03:54:36;;;;;;;10.38;6.82;;;;;;;-139.48;100.00;61774.03;5012728;28;20517;-70
2021/10/25 04:00:35;;;;;;;9.75;6.63;;;;;;;-139.48;100.00;61774.03;5013345;28;20058;-70
2021/10/25 04:27:48;;;;;;;12.27;6.63;;;;;;;-139.48;100.00;61774.03;5016055;28;20045;-70
2021/10/25 04:30:33;;;;;;;11.93;6.53;;;;;;;-139.48;100.00;61774.03;5016013;28;20121;-70
2021/10/25 04:33:17;;;;;;;9.05;6.53;;;;;;;-139.48;100.00;61774.03;5015950;28;20511;-70
2021/10/25 04:36:01;;;;;;;10.23;6.32;;;;;;;-139.48;100.00;61774.03;5015910;28;20557;-69
2021/10/25 04:38:45;;;;;;;8.80;6.10;;;;;;;-139.48;100.00;61774.03;5015621;28;20048;-70
2021/10/25 04:41:29;;;;;;;9.45;6.20;;;;;;;-139.48;100.00;61774.03;5017060;28;20045;-70
2021/10/25 04:44:13;;;;;;;11.13;6.90;;;;;;;-139.48;100.00;61774.03;5015834;28;20088;-69
2021/10/25 04:46:57;;;;;;;9.65;6.38;;;;;;;-139.48;100.00;61774.03;5001915;28;20064;-70
2021/10/25 04:49:41;;;;;;;;;;;;;;;-139.48;100.00;61774.03;5017040;28;20450;-70
2021/10/25 04:52:27;;;;;;;9.20;5.88;;;;;;;-139.48;100.00;61774.03;5015354;28;19963;-70
2021/10/25 04:55:11;;;;;;;8.32;6.30;;;;;;;-139.48;100.00;61774.03;5015543;28;20068;-70
2021/10/25 04:57:55;;;;;;;7.93;6.10;;;;;;;-139.48;100.00;61774.03;5016401;28;20057;-70
2021/10/25 05:00:39;;;;;;;8.27;5.90;;;;;;;-139.48;100.00;61774.03;5015233;28;20518;-70
2021/10/25 05:03:23;;;;;;;8.63;6.10;;;;;;;-139.48;100.00;61774.03;5016422;28;20457;-69
2021/10/25 05:06:13;;;;;;;9.88;6.15;;;;;;;-139.48;100.00;61774.03;5015395;28;20103;-70
2021/10/25 05:08:57;;;;;;;8.20;6.15;;;;;;;-139.48;100.00;61774.03;5015894;28;20572;-70
2021/10/25 05:11:41;;;;;;;9.18;6.35;;;;;;;-139.48;100.00;61774.03;5015313;28;20104;-70
2021/10/25 05:14:25;;;;;;;9.20;6.30;;;;;;;-139.48;100.00;61774.03;5015102;28;20530;-70
2021/10/25 05:17:09;;;;;;;27.17;8.45;;;;;;;-139.48;100.00;61774.03;5015239;28;20406;-68
2021/10/25 05:19:53;;;;;;;43.80;8.80;;;;;;;-139.48;100.00;61774.03;5014808;28;20458;-70
2021/10/25 05:22:37;;;;;;;15.32;8.05;;;;;;;-139.48;100.00;61774.03;5001410;28;20049;-70
2021/10/25 05:25:22;;;;;;;31.30;9.43;;;;;;;-139.48;100.00;61774.03;5015126;28;20045;-69
2021/10/25 05:28:05;;;;;;;12.32;6.97;;;;;;;-139.48;100.00;61774.03;5015895;28;20076;-68
2021/10/25 05:30:49;;;;;;;33.83;8.45;;;;;;;-139.48;100.00;61774.03;5015005;28;20044;-69
2021/10/25 05:33:33;;;;;;;10.25;6.97;;;;;;;-139.48;100.00;61774.03;5014870;28;20458;-69
2021/10/25 05:36:18;;;;;;;11.05;7.22;;;;;;;-139.48;100.00;61774.03;5014403;28;20164;-68
2021/10/25 05:39:02;;;;;;;11.35;6.63;;;;;;;-139.48;100.00;61774.03;5015581;28;20549;-68
2021/10/25 05:41:46;;;;;;;12.32;7.47;;;;;;;-139.48;100.00;61774.03;5014725;28;20057;-69
2021/10/25 05:44:30;;;;;;;11.32;7.22;;;;;;;-139.48;100.00;61774.03;5000867;28;20049;-68
2021/10/25 05:47:14;;;;;;;10.93;7.20;;;;;;;-139.48;100.00;61774.03;5014649;28;20095;-69
2021/10/25 05:49:58;;;;;;;10.43;6.97;;;;;;;-139.48;100.00;61774.03;5015418;28;20053;-69
2021/10/25 05:52:42;;;;;;;10.70;6.88;;;;;;;-139.48;100.00;61774.03;5015253;28;20059;-69
2021/10/25 05:55:28;;;;;;;12.27;8.25;;;;;;;-139.48;100.00;61774.03;5014379;28;20099;-68
2021/10/25 05:58:21;;;;;;;14.23;7.28;;;;;;;-139.48;100.00;61774.03;5014095;28;20052;-69
2021/10/25 06:01:11;;;;;;;10.50;7.18;;;;;;;-139.48;100.00;61774.03;5014360;28;20100;-69
2021/10/25 06:04:03;;;;;;;10.38;6.97;;;;;;;-139.48;100.00;61774.03;5001150;28;20044;-68
2021/10/25 06:06:47;;;;;;;19.30;8.10;;;;;;;-139.48;100.00;61774.03;5014343;28;20045;-68
2021/10/25 06:09:34;;;;;;;17.83;8.30;;;;;;;-139.48;100.00;61774.03;5014057;28;20053;-68
2021/10/25 06:12:19;;;;;;;11.10;7.72;;;;;;;-139.48;100.00;61774.03;5000923;28;20403;-69
2021/10/25 06:15:09;;;;;;;9.93;7.32;;;;;;;-139.48;100.00;61774.03;5000334;28;20498;-67
2021/10/25 06:17:56;;;;;;;16.00;7.82;;;;;;;-139.48;100.00;61774.03;5013784;28;20053;-69
2021/10/25 06:20:40;;;;;;;14.35;7.55;;;;;;;-139.48;100.00;61774.03;5013925;28;20414;-66
2021/10/25 06:23:25;;;;;;;14.50;6.82;;;;;;;-139.48;100.00;61774.03;5015382;28;20064;-68
2021/10/25 06:26:09;;;;;;;12.70;7.30;;;;;;;-139.48;100.00;61774.03;4999334;28;20045;-68
2021/10/25 06:28:53;;;;;;;14.00;9.10;;;;;;;-139.48;100.00;61774.03;5000037;28;20553;-69
2021/10/25 06:31:37;;;;;;;12.98;7.50;;;;;;;-139.48;100.00;61774.03;4999936;28;20407;-68
2021/10/25 06:34:24;;;;;;;11.82;7.13;;;;;;;-139.48;100.00;61774.03;5013666;28;20052;-69
2021/10/25 06:37:08;;;;;;;10.85;7.50;;;;;;;-139.48;100.00;61774.03;5013825;28;20052;-69
2021/10/25 06:39:56;;;;;;;13.23;8.48;;;;;;;-139.48;100.00;61774.03;4999767;28;20437;-69
2021/10/25 06:42:40;;;;;;;13.43;8.43;;;;;;;-139.48;100.00;61774.03;5013858;28;20053;-68
2021/10/25 06:45:24;;;;;;;11.27;6.97;;;;;;;-139.48;100.00;61774.03;4999968;28;20606;-67
2021/10/25 06:48:08;;;;;;;11.07;6.78;;;;;;;-139.48;100.00;61774.03;5014768;28;20554;-68
2021/10/25 06:50:53;;;;;;;12.07;7.13;;;;;;;-139.48;100.00;61774.03;5013373;28;20565;-69
2021/10/25 06:53:36;;;;;;;;;;;;;;;-139.48;100.00;61774.03;5014150;28;20136;-67
2021/10/25 06:56:20;;;;;;;14.33;8.07;;;;;;;-139.48;100.00;61774.03;5013417;28;19924;-68
2021/10/25 06:59:04;;;;;;;17.88;8.02;;;;;;;-139.48;100.00;61774.03;5013261;28;20184;-69
2021/10/25 07:01:48;;;;;;;11.52;8.10;;;;;;;-139.48;100.00;61774.03;5013181;28;20472;-69
2021/10/25 07:04:32;;;;;;;13.65;7.60;;;;;;;-139.48;100.00;61774.03;5013341;28;20477;-69
2021/10/25 07:07:18;;;;;;;11.20;7.85;;;;;;;-139.48;100.00;61774.03;5013479;28;20502;-69
2021/10/25 07:10:04;;;;;;;9.52;7.03;;;;;;;-139.48;100.00;61774.03;5012871;28;20111;-68
2021/10/25 07:12:51;;;;;;;12.10;7.78;;;;;;;-139.48;100.00;61774.03;5013394;28;20063;-68
2021/10/25 07:15:42;;;;;;;10.60;7.30;;;;;;;-139.48;100.00;61774.03;5014164;28;20049;-68
2021/10/25 08:12:28;;;;;;;9.18;6.75;;;;;;;-139.48;100.00;61774.03;5012337;28;20084;-68
2021/10/25 08:15:20;;;;;;;18.30;13.10;;;;;;;-139.48;100.00;61774.03;5012524;28;20100;-69
2021/10/25 08:18:09;;;;;;;16.75;12.98;;;;;;;-139.48;100.00;61774.03;5012417;28;20395;-68
2021/10/25 08:20:52;;;;;;;10.93;8.95;;;;;;;-139.48;100.00;61774.03;5013123;28;20418;-68
2021/10/25 08:23:38;;;;;;;10.30;7.10;;;;;;;-139.48;100.00;61774.03;5012636;28;20558;-68
2021/10/25 08:26:22;;;;;;;9.25;6.85;;;;;;;-139.48;100.00;61774.03;5012359;28;20044;-70
2021/10/25 08:29:06;;;;;;;10.65;8.00;;;;;;;-139.48;100.00;61774.03;4998291;28;20048;-69
2021/10/25 08:32:01;;;;;;;11.93;8.60;;;;;;;-139.48;100.00;61774.03;5013077;28;20108;-69
2021/10/25 08:40:39;;;;;;;11.63;8.60;;;;;;;-139.48;100.00;61774.03;5012423;28;20099;-70
2021/10/25 08:43:27;;;;;;;13.48;8.85;;;;;;;-139.48;100.00;61774.03;5012171;28;20052;-69
2021/10/25 08:46:14;;;;;;;10.57;7.90;;;;;;;-139.48;100.00;61774.03;5013201;28;20045;-70
2021/10/25 08:48:58;;;;;;;11.70;8.68;;;;;;;-139.48;100.00;61774.03;5001045;28;20157;-69
2021/10/25 08:51:43;;;;;;;12.18;8.48;;;;;;;-139.48;100.00;61774.03;5001678;28;20088;-70
2021/10/25 08:54:27;;;;;;;8.88;7.65;;;;;;;-139.48;100.00;61774.03;5015584;28;20092;-70
2021/10/25 08:57:11;;;;;;;9.20;6.88;;;;;;;-139.48;100.00;61774.03;5016902;28;20100;-69
2021/10/25 09:00:10;;;;;;;10.88;6.13;;;;;;;-139.48;100.00;61774.03;5001858;28;20053;-69
2021/10/25 09:03:00;;;;;;;10.05;6.93;;;;;;;-139.48;100.00;61774.03;5015340;28;20513;-69
2021/10/25 09:05:55;;;;;;;9.95;6.93;;;;;;;-139.48;100.00;61774.03;5015584;28;20064;-67
2021/10/25 09:08:41;;;;;;;7.35;5.90;;;;;;;-139.48;100.00;61774.03;5015221;28;20092;-69
2021/10/25 09:11:25;;;;;;;8.55;5.93;;;;;;;-139.48;100.00;61774.03;5015543;28;20068;-67
2021/10/25 09:14:15;;;;;;;7.65;6.25;;;;;;;-139.48;100.00;61774.03;5015605;28;20131;-67
2021/10/25 09:17:07;;;;;;;8.18;6.55;;;;;;;-139.48;100.00;61774.03;5015283;28;20092;-68
2021/10/25 09:19:51;;;;;;;7.00;6.30;;;;;;;-139.48;100.00;61774.03;5001078;28;20113;-68
2021/10/25 09:22:35;;;;;;;7.28;6.57;;;;;;;-139.48;100.00;61774.03;5015107;28;20103;-68
2021/10/25 09:25:19;;;;;;;;;;;;;;;-139.48;100.00;61774.03;5015296;28;20107;-68
2021/10/25 09:28:41;;;;;;;8.43;6.88;;;;;;;-139.48;100.00;61774.03;5014790;28;19920;-68
2021/10/25 09:31:28;;;;;;;10.30;7.80;;;;;;;-139.48;100.00;61774.03;4941907;29;20534;-68
2021/10/25 09:34:13;;;;;;;9.95;6.85;;;;;;;-139.48;100.00;61774.03;5015406;28;20084;-68
2021/10/25 09:37:05;;;;;;;8.73;6.75;;;;;;;-139.48;100.00;61774.03;5001081;28;20526;-69
2021/10/25 09:39:55;;;;;;;10.95;6.88;;;;;;;-139.48;100.00;61774.03;5001196;28;20041;-69
2021/10/25 09:46:02;;;;;;;7.10;6.25;;;;;;;-139.48;100.00;61774.03;5014820;28;20076;-69
2021/10/25 09:49:14;;;;;;;9.07;7.18;;;;;;;-139.48;100.00;61774.03;5014357;28;20048;-68
2021/10/25 09:52:00;;;;;;;7.85;7.07;;;;;;;-139.48;100.00;61774.03;5014874;28;20044;-69
2021/10/25 09:54:44;;;;;;;7.90;6.80;;;;;;;-139.48;100.00;61774.03;5000435;28;20045;-69
2021/10/25 09:57:39;;;;;;;8.05;6.78;;;;;;;-139.48;100.00;61774.03;5000641;28;20121;-69
2021/10/25 10:00:23;;;;;;;8.57;7.68;;;;;;;-139.48;100.00;61774.03;5002045;28;20053;-68
2021/10/25 10:03:07;;;;;;;8.27;7.25;;;;;;;-139.48;100.00;61774.03;5014198;28;20126;-65
2021/10/25 10:05:55;;;;;;;9.02;7.40;;;;;;;-139.48;100.00;61774.03;5014146;28;20141;-69
2021/10/25 10:08:40;;;;;;;7.78;6.93;;;;;;;-139.48;100.00;61774.03;5000688;28;20056;-69
2021/10/25 10:11:25;;;;;;;10.20;7.10;;;;;;;-139.48;100.00;61774.03;5014039;28;20060;-68
2021/10/25 10:14:10;;;;;;;8.90;7.93;;;;;;;-139.48;100.00;61774.03;5000453;28;20052;-68
2021/10/25 10:16:54;;;;;;;8.82;7.75;;;;;;;-139.48;100.00;61774.03;5014470;28;20118;-68
2021/10/25 10:19:38;;;;;;;11.70;7.43;;;;;;;-139.48;100.00;61774.03;5014971;28;20086;-68
2021/10/25 10:22:26;;;;;;;11.57;7.30;;;;;;;-139.48;100.00;61774.03;5013774;28;20482;-69
2021/10/25 10:25:10;;;;;;;7.13;6.43;;;;;;;-139.48;100.00;61774.03;5013953;28;20100;-69
2021/10/25 10:28:02;;;;;;;7.53;6.82;;;;;;;-139.48;100.00;61774.03;5013845;28;20179;-68
2021/10/25 10:31:02;;;;;;;8.05;6.88;;;;;;;-139.48;100.00;61774.03;5000291;28;20081;-69
2021/10/25 10:33:51;;;;;;;8.40;6.88;;;;;;;-139.48;100.00;61774.03;5013811;28;20111;-69
2021/10/25 10:36:35;;;;;;;8.82;7.25;;;;;;;-139.48;100.00;61774.03;5014441;28;20111;-69
2021/10/25 10:39:20;;;;;;;9.20;7.18;;;;;;;-139.48;100.00;61774.03;5013602;28;20052;-69
2021/10/25 10:42:06;;;;;;;10.07;6.50;;;;;;;-139.48;100.00;61774.03;5013369;28;20088;-68
2021/10/25 10:44:58;;;;;;;7.82;7.03;;;;;;;-139.48;100.00;61774.03;5013591;28;20053;-65
2021/10/25 10:47:54;;;;;;;7.95;7.13;;;;;;;-139.48;100.00;61774.03;5013675;28;20044;-69
2021/10/25 10:50:47;;;;;;;7.75;6.25;;;;;;;-139.48;100.00;61774.03;5013515;28;20125;-69
2021/10/25 10:53:35;;;;;;;;;;;;;;;-139.48;100.00;61774.03;5000916;28;20045;-69
2021/10/25 10:56:29;;;;;;;7.72;6.20;;;;;;;-139.48;100.00;61774.03;5013048;28;19968;-69
2021/10/25 10:59:32;;;;;;;8.88;6.65;;;;;;;-139.48;100.00;61774.03;5013368;28;20068;-69
2021/10/25 11:02:19;;;;;;;8.05;6.43;;;;;;;-139.48;100.00;61774.03;5013440;28;20049;-69
2021/10/25 11:05:07;;;;;;;7.82;6.93;;;;;;;6.53;100.00;101109.16;5013758;28;20103;-69
2021/10/25 11:07:52;;;;;;;7.88;6.20;;;;;;;33.22;21.89;100915.88;5013002;28;20045;-69
2021/10/25 11:10:41;;;;;;;6.80;6.10;;;;;;;-139.48;100.00;61774.03;5012457;28;20096;-68
2021/10/25 11:13:26;;;;;;;7.53;6.40;;;;;;;-139.48;100.00;61774.03;5013130;28;20486;-69
2021/10/25 11:16:19;;;;;;;8.82;6.63;;;;;;;-139.48;100.00;61774.03;5014184;28;20427;-69
2021/10/25 11:19:05;;;;;;;8.10;6.78;;;;;;;-139.48;100.00;61774.03;5012783;28;20044;-69
2021/10/25 11:21:53;;;;;;;7.78;6.35;;;;;;;37.26;18.60;100903.34;5013041;28;20048;-69
2021/10/25 11:24:38;;;;;;;6.78;5.45;;;;;;;37.40;18.37;100900.59;4999704;28;20057;-69
2021/10/25 11:27:39;;;;;;;7.32;6.63;;;;;;;37.45;18.13;100894.94;5012850;28;20053;-69
2021/10/25 11:30:23;;;;;;;9.02;6.43;;;;;;;37.39;17.92;100885.84;5000562;28;20056;-69
2021/10/25 11:33:07;;;;;;;9.90;6.60;;;;;;;36.46;18.75;100885.09;5012815;28;20068;-69
2021/10/25 11:35:51;;;;;;;7.38;6.45;;;;;;;34.74;19.89;100879.97;4998743;28;20049;-69
2021/10/25 11:38:41;;;;;;;7.82;6.32;;;;;;;34.78;20.31;100883.00;5012412;28;20100;-70
2021/10/25 11:41:25;;;;;;;8.27;6.50;;;;;;;35.20;20.00;100877.69;5013716;28;20041;-69
2021/10/25 11:44:14;;;;;;;7.78;6.30;;;;;;;35.37;19.54;100876.13;5012959;28;20555;-69
2021/10/25 11:46:58;;;;;;;7.10;6.30;;;;;;;35.31;19.47;100868.97;5012694;28;20074;-69
2021/10/25 11:49:43;;;;;;;7.72;6.18;;;;;;;34.44;20.44;100865.47;5012622;28;20056;-69
2021/10/25 11:52:39;;;;;;;6.13;5.53;;;;;;;35.06;20.00;100863.63;5012255;28;20049;-69
2021/10/25 11:55:37;;;;;;;7.80;5.80;;;;;;;35.46;19.99;100866.06;5013350;28;20060;-69
2021/10/25 11:58:23;;;;;;;7.18;6.47;;;;;;;35.53;19.67;100865.72;4998654;28;20176;-69
2021/10/25 12:01:12;;;;;;;6.97;6.22;;;;;;;35.29;19.84;100862.09;5012514;28;20060;-69
2021/10/25 12:03:56;;;;;;;7.68;5.97;;;;;;;35.57;19.82;100859.28;5012273;28;20095;-69
2021/10/25 12:06:40;;;;;;;6.70;5.63;;;;;;;35.91;18.96;100851.69;5012467;28;20096;-70
2021/10/25 12:09:32;;;;;;;7.07;5.40;;;;;;;35.45;19.84;100853.31;4998317;28;20116;-70
2021/10/25 12:12:21;;;;;;;7.90;6.82;;;;;;;33.07;21.81;100843.19;4998237;28;20057;-69
2021/10/25 12:15:05;;;;;;;7.82;6.97;;;;;;;31.27;23.42;100839.78;5013328;28;20060;-69
2021/10/25 12:17:49;;;;;;;7.28;6.40;;;;;;;28.92;26.46;100836.09;5012415;28;20057;-69
2021/10/25 12:20:39;;;;;;;6.40;5.78;;;;;;;-139.48;100.00;61774.03;5012213;28;20184;-69
2021/10/25 12:23:24;;;;;;;11.35;5.97;;;;;;;-139.48;100.00;61774.03;5050333;22;20104;-69
2021/10/25 12:26:08;;;;;;;6.38;5.70;;;;;;;-139.48;100.00;61774.03;5016021;28;20128;-69
2021/10/25 12:28:53;;;;;;;7.22;6.05;;;;;;;-139.48;100.00;61774.03;5015875;28;20053;-69
2021/10/25 12:31:37;;;;;;;6.82;6.18;;;;;;;-139.48;100.00;61774.03;5002256;28;20045;-69
2021/10/25 12:34:21;;;;;;;7.93;6.07;;;;;;;-139.48;100.00;61774.03;4982943;28;20514;-70
2021/10/25 12:37:05;;;;;;;6.45;5.15;;;;;;;-139.48;100.00;61774.03;4982544;28;20577;-69
2021/10/25 12:39:50;;;;;;;6.65;5.93;;;;;;;-139.48;100.00;61774.03;4982642;28;20045;-70
2021/10/25 12:42:42;;;;;;;7.40;6.20;;;;;;;-139.48;100.00;61774.03;4996082;28;20092;-70
2021/10/25 12:45:31;;;;;;;6.95;5.43;;;;;;;-139.48;100.00;61774.03;4982441;28;20096;-70
2021/10/25 12:48:17;;;;;;;6.18;5.00;;;;;;;-139.48;100.00;61774.03;4982874;28;20557;-69
2021/10/25 12:51:02;;;;;;;5.65;4.97;;;;;;;-139.48;100.00;61774.03;4996966;28;20514;-69
2021/10/25 12:53:50;;;;;;;8.50;5.05;;;;;;;-139.48;100.00;61774.03;4995794;28;20104;-70
2021/10/25 12:56:34;;;;;;;5.38;4.85;;;;;;;-139.48;100.00;61774.03;4996022;28;20137;-70
2021/10/25 12:59:20;;;;;;;6.07;4.68;;;;;;;-139.48;100.00;61774.03;4997057;28;20097;-70
2021/10/25 13:02:04;;;;;;;8.13;5.10;;;;;;;-139.48;100.00;61774.03;4995676;28;20395;-70
2021/10/25 13:04:48;;;;;;;5.47;4.72;;;;;;;-139.48;100.00;61774.03;4982055;28;20426;-69
2021/10/25 13:07:32;;;;;;;5.70;4.35;;;;;;;-139.48;100.00;61774.03;4995867;28;20060;-70
2021/10/25 13:10:18;;;;;;;7.05;4.68;;;;;;;-139.48;100.00;61774.03;4995603;28;20057;-70
2021/10/25 13:13:04;;;;;;;6.90;4.80;;;;;;;-139.48;100.00;61774.03;4981887;28;20088;-70
2021/10/25 13:15:48;;;;;;;5.85;4.53;;;;;;;-139.48;100.00;61774.03;4996666;28;20549;-70
2021/10/25 13:18:32;;;;;;;5.05;4.55;;;;;;;-139.48;100.00;61774.03;4981907;28;20529;-70
2021/10/25 13:21:16;;;;;;;5.00;4.50;;;;;;;-139.48;100.00;61774.03;4982179;28;20407;-70
2021/10/25 13:24:00;;;;;;;6.97;4.90;;;;;;;-139.48;100.00;61774.03;4995171;28;20093;-70
2021/10/25 13:26:44;;;;;;;6.28;4.25;;;;;;;-139.48;100.00;61774.03;4996259;28;20048;-70
2021/10/25 13:29:28;;;;;;;4.65;3.97;;;;;;;-139.48;100.00;61774.03;4996437;28;20518;-70
2021/10/25 13:32:13;;;;;;;5.13;4.32;;;;;;;-139.48;100.00;61774.03;4995236;28;20048;-69
2021/10/25 13:34:57;;;;;;;6.78;4.82;;;;;;;-139.48;100.00;61774.03;4995514;28;20174;-70
2021/10/25 13:37:42;;;;;;;11.40;8.60;;;;;;;-139.48;100.00;61774.03;4995261;28;20527;-70
2021/10/25 13:40:29;;;;;;;8.75;5.00;;;;;;;-139.48;100.00;61774.03;4981558;28;20057;-70
2021/10/25 13:43:13;;;;;;;11.23;4.78;;;;;;;-139.48;100.00;61774.03;4981811;28;20053;-69
2021/10/25 13:45:57;;;;;;;9.38;4.38;;;;;;;-139.48;100.00;61774.03;4996165;28;20053;-70
2021/10/25 13:48:41;;;;;;;7.78;4.88;;;;;;;-139.48;100.00;61774.03;4981214;28;20096;-70
2021/10/25 13:51:25;;;;;;;5.80;4.55;;;;;;;-139.48;100.00;61774.03;4996059;28;20503;-70
2021/10/25 13:54:09;;;;;;;5.53;4.93;;;;;;;-139.48;100.00;61774.03;4995642;28;20050;-70
2021/10/25 13:56:54;;;;;;;8.95;4.60;;;;;;;-139.48;100.00;61774.03;4994718;28;20162;-70
2021/10/25 13:59:38;;;;;;;7.22;4.70;;;;;;;-139.48;100.00;61774.03;4994935;28;20411;-70
2021/10/25 14:02:28;;;;;;;5.90;4.38;;;;;;;-139.48;100.00;61774.03;4994801;28;20049;-70
2021/10/25 14:05:17;;;;;;;5.85;4.32;;;;;;;-139.48;100.00;61774.03;4995507;28;20096;-70